KLWS

Lewiston-Nez Perce County Airport

Lewiston, Idaho, USA
METAR KLWS 230756Z AUTO 25003KT 10SM OVC049 M02/M09 A3032 RMK AO2 SLP285 T10221094 410061056
Observed Flight Rules
Feb-23 @ 07:56 UTC (19 minutes ago) Visual Flight Rules
Wind Visibility Clouds
250° at 3 knots 10 miles
  • Overcast at 4,900' AGL
Temperatures Readings
Current -2°C / 28°F
Dewpoint -9°C / 16°F
Humidity 59%
Altimeter 30.32" Hg
Pressure 1028.5 hPa
Elevation 438
METAR KLWS 230756Z AUTO 25003KT 10SM OVC049 M02/M09 A3032 RMK AO2 SLP285 T10221094 410061056
Observed Flight Rules
Feb-23 @ 07:56 UTC
(19 minutes ago)
VFR
Wind Visibility
250° at 3 knots 10 miles
Clouds
  • Overcast at 4,900' AGL
Temperature Dewpoint
-2°C / 28°F -9°C / 16°F
Humidity Altimeter Pressure
59% 30.32" Hg 1028.5 hPa